Time;durP1;ratioP1;P1;durP2;ratioP2;P2;SDS_P1;SDS_P2;PMS_P1;PMS_P2;Temp;Humidity;BMP_temperature;BMP_pressure;BME280_temperature;BME280_humidity;BME280_pressure;Samples;Min_cycle;Max_cycle;Signal;HPM_P1;HPM_P2
2022/05/31 00:00:49;;;;;;;5.07;2.63;;;;;;;15.19;46.66;101294.84;5080221;28;20053;-63
2022/05/31 00:03:17;;;;;;;5.72;2.78;;;;;;;15.18;46.67;101292.38;5083970;28;20079;-63
2022/05/31 00:05:45;;;;;;;4.28;2.63;;;;;;;15.17;46.65;101294.28;5080917;28;20040;-62
2022/05/31 00:08:14;;;;;;;5.20;2.53;;;;;;;15.16;46.86;101289.94;5083996;28;20055;-63
2022/05/31 00:10:42;;;;;;;3.97;2.13;;;;;;;15.15;46.59;101287.47;5083589;28;20079;-63
2022/05/31 00:13:09;;;;;;;2.75;1.95;;;;;;;15.13;46.78;101287.69;5073406;28;20388;-63
2022/05/31 00:15:37;;;;;;;3.50;1.98;;;;;;;15.12;46.52;101283.34;5083214;28;20066;-62
2022/05/31 00:18:06;;;;;;;5.90;2.55;;;;;;;15.12;46.61;101283.34;5078863;28;20100;-63
2022/05/31 00:20:33;;;;;;;4.65;2.28;;;;;;;15.10;46.80;101279.25;5078364;28;20622;-62
2022/05/31 00:23:02;;;;;;;4.00;2.30;;;;;;;15.09;46.53;101285.72;5075185;28;20450;-63
2022/05/31 00:25:31;;;;;;;6.22;2.15;;;;;;;15.08;46.93;101286.78;5081833;28;20056;-62
2022/05/31 00:27:59;;;;;;;5.85;2.55;;;;;;;15.07;46.82;101287.84;5070748;28;20361;-63
2022/05/31 00:30:26;;;;;;;3.42;2.30;;;;;;;15.06;46.87;101288.91;5082408;28;20095;-62
2022/05/31 00:32:54;;;;;;;4.70;2.67;;;;;;;15.06;46.80;101294.31;5080185;28;20063;-63
2022/05/31 00:35:25;;;;;;;4.95;2.65;;;;;;;14.97;46.75;101277.63;5084409;28;20048;-63
2022/05/31 00:37:54;;;;;;;4.10;2.50;;;;;;;15.03;46.58;101284.78;5074948;28;20049;-64
2022/05/31 00:40:25;;;;;;;5.03;2.83;;;;;;;15.02;46.58;101280.44;5081645;28;20056;-63
2022/05/31 00:42:58;;;;;;;4.57;2.67;;;;;;;15.00;46.92;101287.16;5079319;28;20113;-62
2022/05/31 00:45:37;;;;;;;4.40;2.67;;;;;;;14.97;46.51;101283.88;5082595;28;20067;-62
2022/05/31 00:48:09;;;;;;;2.40;1.75;;;;;;;14.96;46.91;101286.81;5074965;28;20140;-62
2022/05/31 00:50:43;;;;;;;3.47;1.98;;;;;;;14.95;47.02;101288.69;5082998;28;20390;-63
2022/05/31 00:53:17;;;;;;;5.28;2.53;;;;;;;14.92;46.98;101277.53;5078639;28;20075;-63
2022/05/31 00:55:50;;;;;;;5.18;2.53;;;;;;;14.94;46.78;101281.63;5083102;28;20052;-62
2022/05/31 00:58:23;;;;;;;5.50;2.42;;;;;;;14.93;46.96;101287.28;5083138;28;20040;-62
2022/05/31 01:00:51;;;;;;;4.85;2.10;;;;;;;14.93;47.02;101285.41;5078914;28;20133;-63
2022/05/31 01:03:21;;;;;;;6.70;2.30;;;;;;;14.93;46.82;101280.00;5078955;28;20144;-63
2022/05/31 01:05:49;;;;;;;5.80;2.50;;;;;;;14.92;47.01;101278.34;5081920;28;20131;-62
2022/05/31 01:08:17;;;;;;;6.30;2.33;;;;;;;14.91;47.22;101282.13;5079898;28;20064;-62
2022/05/31 01:10:45;;;;;;;4.18;2.40;;;;;;;14.91;47.09;101275.88;5081320;28;20052;-62
2022/05/31 01:13:16;;;;;;;5.70;2.30;;;;;;;14.89;46.98;101280.72;5080142;28;20084;-63
2022/05/31 01:15:47;;;;;;;5.30;2.75;;;;;;;14.90;47.08;101274.25;5082669;28;20120;-62
2022/05/31 01:18:16;;;;;;;3.83;2.38;;;;;;;14.88;46.86;101276.38;5080913;28;20091;-62
2022/05/31 01:20:45;;;;;;;5.60;2.50;;;;;;;14.88;46.91;101265.53;5072996;28;20069;-62
2022/05/31 01:23:14;;;;;;;5.68;2.75;;;;;;;14.88;46.97;101274.47;5077097;28;20045;-62
2022/05/31 01:26:01;;;;;;;4.43;2.72;;;;;;;14.86;47.03;101273.91;5089883;28;20056;-62
2022/05/31 01:28:41;;;;;;;5.45;2.47;;;;;;;14.85;46.81;101271.44;5081353;28;20055;-62
2022/05/31 01:31:17;;;;;;;3.80;2.35;;;;;;;14.83;46.69;101263.56;5077510;28;20076;-63
2022/05/31 01:33:49;;;;;;;4.95;2.20;;;;;;;14.83;47.08;101263.56;5076485;28;20049;-63
2022/05/31 01:36:21;;;;;;;6.95;3.00;;;;;;;14.82;46.97;101266.50;5080599;28;20045;-62
2022/05/31 01:38:57;;;;;;;6.35;2.60;;;;;;;14.81;46.87;101270.25;5070074;28;20053;-62
2022/05/31 01:41:29;;;;;;;8.27;2.70;;;;;;;14.76;47.23;101264.75;5080407;28;20108;-62
2022/05/31 01:44:01;;;;;;;4.82;2.30;;;;;;;14.77;47.26;101263.69;5080285;28;20075;-62
2022/05/31 01:46:32;;;;;;;4.65;2.78;;;;;;;14.76;47.32;101256.63;5073141;28;20052;-62
2022/05/31 01:49:04;;;;;;;5.50;2.53;;;;;;;14.75;47.19;101257.69;5075818;28;20049;-62
2022/05/31 01:51:34;;;;;;;4.70;2.80;;;;;;;14.74;47.12;101265.00;5078315;28;20072;-62
2022/05/31 01:54:02;;;;;;;7.38;2.50;;;;;;;14.71;47.19;101260.06;5082960;28;20045;-62
2022/05/31 01:56:31;;;;;;;6.10;3.13;;;;;;;14.72;47.56;101266.28;5082648;28;20052;-63
2022/05/31 01:59:00;;;;;;;6.70;2.58;;;;;;;14.70;47.47;101268.41;5081042;28;20076;-62
2022/05/31 02:01:31;;;;;;;5.35;2.42;;;;;;;14.69;47.14;101267.59;5079407;28;20086;-62
2022/05/31 02:04:00;;;;;;;5.13;2.90;;;;;;;14.69;47.39;101262.19;5073643;28;20049;-63
2022/05/31 02:06:30;;;;;;;6.50;2.63;;;;;;;14.69;47.24;101258.66;5079267;28;20095;-62
2022/05/31 02:09:00;;;;;;;5.07;2.50;;;;;;;14.63;47.35;101260.44;5078370;28;20055;-62
2022/05/31 02:11:28;;;;;;;6.22;2.22;;;;;;;14.65;47.10;101261.00;5079649;28;20072;-62
2022/05/31 02:13:58;;;;;;;6.13;2.88;;;;;;;14.65;47.13;101264.53;5080463;28;20087;-62
2022/05/31 02:16:26;;;;;;;5.60;2.50;;;;;;;14.65;47.60;101261.84;5082831;28;20102;-63
2022/05/31 02:21:40;;;;;;;5.88;2.50;;;;;;;14.61;47.49;101259.84;5083803;28;20064;-63
2022/05/31 02:24:12;;;;;;;6.93;2.83;;;;;;;14.63;47.69;101260.44;5083857;28;20091;-62
2022/05/31 02:26:42;;;;;;;5.30;3.03;;;;;;;14.62;47.74;101256.06;5086581;28;20045;-62
2022/05/31 02:29:11;;;;;;;6.05;2.35;;;;;;;14.62;47.49;101258.78;5076409;28;20193;-62
2022/05/31 02:31:40;;;;;;;5.78;2.63;;;;;;;14.61;47.67;101249.03;5084149;28;20052;-62
2022/05/31 02:34:09;;;;;;;5.15;2.92;;;;;;;14.62;47.28;101256.06;5082131;28;20044;-62
2022/05/31 02:36:38;;;;;;;6.90;2.97;;;;;;;14.61;47.20;101249.84;5084329;28;20071;-63
2022/05/31 02:39:06;;;;;;;4.18;2.05;;;;;;;14.61;47.44;101255.25;5082687;28;20044;-63
2022/05/31 02:41:36;;;;;;;6.53;3.13;;;;;;;14.62;47.32;101250.66;5086321;28;20055;-62
2022/05/31 02:44:05;;;;;;;3.72;2.28;;;;;;;14.61;47.43;101249.84;5078625;28;20068;-62
2022/05/31 02:46:33;;;;;;;4.20;2.35;;;;;;;14.59;47.20;101245.72;5086277;28;20045;-62
2022/05/31 02:49:04;;;;;;;6.43;2.35;;;;;;;14.59;47.67;101243.03;5072491;28;20124;-62
2022/05/31 02:51:34;;;;;;;3.95;2.67;;;;;;;14.58;47.27;101241.38;5077058;28;20074;-62
2022/05/31 02:54:02;;;;;;;3.60;2.60;;;;;;;14.57;47.71;101242.44;5083568;28;20082;-62
2022/05/31 02:56:30;;;;;;;5.95;3.00;;;;;;;14.56;47.56;101241.63;5086002;28;20080;-62
2022/05/31 02:58:59;;;;;;;6.50;2.47;;;;;;;14.56;47.45;101247.03;5076194;28;20123;-62
2022/05/31 03:01:30;;;;;;;3.97;2.33;;;;;;;14.55;47.88;101244.56;5082274;28;20055;-62
2022/05/31 03:03:58;;;;;;;4.07;2.28;;;;;;;14.55;47.56;101244.56;5078712;28;20052;-62
2022/05/31 03:06:26;;;;;;;5.93;2.55;;;;;;;14.53;47.61;101239.41;5083493;28;20047;-62
2022/05/31 03:08:54;;;;;;;4.95;2.70;;;;;;;14.53;48.00;101241.28;5083306;28;20052;-62
2022/05/31 03:11:25;;;;;;;4.40;2.53;;;;;;;14.52;47.67;101236.94;5084581;28;20163;-63
2022/05/31 03:13:58;;;;;;;6.55;2.38;;;;;;;14.48;47.86;101233.06;5082879;28;20048;-62
2022/05/31 03:16:27;;;;;;;5.75;2.50;;;;;;;14.49;47.60;101238.22;5076615;28;20178;-63
2022/05/31 03:19:01;;;;;;;4.82;2.63;;;;;;;14.48;47.65;101235.75;5084859;28;20048;-62
2022/05/31 03:21:36;;;;;;;6.13;2.53;;;;;;;14.49;47.75;101240.09;5084334;28;20124;-63
2022/05/31 03:24:10;;;;;;;4.28;2.47;;;;;;;14.46;47.71;101233.28;5079651;28;20060;-62
2022/05/31 03:26:40;;;;;;;5.63;2.42;;;;;;;14.46;47.83;101230.59;5082110;28;20135;-62
2022/05/31 03:29:09;;;;;;;7.15;2.45;;;;;;;14.46;48.03;101232.47;5078015;28;20073;-62
2022/05/31 03:31:39;;;;;;;7.95;2.90;;;;;;;14.45;48.31;101226.25;5074282;28;20506;-63
2022/05/31 03:34:07;;;;;;;5.82;2.80;;;;;;;14.45;47.93;101228.13;5082972;28;20048;-62
2022/05/31 03:36:35;;;;;;;5.45;2.42;;;;;;;14.45;47.80;101233.53;5077468;28;20072;-62
2022/05/31 03:39:03;;;;;;;5.25;2.65;;;;;;;14.44;48.07;101230.00;5081563;28;20087;-64
2022/05/31 03:41:34;;;;;;;7.10;3.05;;;;;;;14.43;48.32;101227.53;5080131;28;20052;-63
2022/05/31 03:44:02;;;;;;;7.15;2.72;;;;;;;14.42;48.17;101231.31;5084075;28;20087;-62
2022/05/31 03:46:29;;;;;;;6.05;2.85;;;;;;;14.41;48.00;101225.03;5081068;28;20242;-62
2022/05/31 03:48:59;;;;;;;5.25;2.70;;;;;;;14.40;48.05;101220.69;5077825;28;20044;-63
2022/05/31 03:51:27;;;;;;;6.10;2.60;;;;;;;14.40;47.94;101225.28;5071309;28;20075;-62
2022/05/31 03:53:55;;;;;;;4.80;2.63;;;;;;;14.39;48.63;101227.16;5074860;28;20045;-62
2022/05/31 03:56:23;;;;;;;4.22;2.67;;;;;;;14.40;48.39;101226.09;5070360;28;20072;-63
2022/05/31 03:58:51;;;;;;;7.43;3.05;;;;;;;14.38;48.21;101225.50;5076856;28;20100;-63
2022/05/31 04:01:19;;;;;;;6.40;2.90;;;;;;;14.39;48.30;101227.16;5081503;28;20047;-63
2022/05/31 04:03:47;;;;;;;5.47;2.80;;;;;;;14.40;48.46;101219.88;5082297;28;20059;-62
2022/05/31 04:06:16;;;;;;;4.00;2.42;;;;;;;14.39;48.36;101231.75;5073348;28;20071;-62
2022/05/31 04:08:44;;;;;;;5.50;2.53;;;;;;;14.37;48.48;101225.75;5081258;28;20110;-62
2022/05/31 04:11:12;;;;;;;6.22;2.70;;;;;;;14.38;48.27;101227.41;5083655;28;20053;-62
2022/05/31 04:13:40;;;;;;;4.60;2.92;;;;;;;14.37;48.30;101221.16;5068622;28;20082;-63
2022/05/31 04:16:10;;;;;;;4.93;3.10;;;;;;;14.33;48.36;101214.59;5083331;28;20052;-62
2022/05/31 04:18:38;;;;;;;4.63;2.67;;;;;;;14.36;48.27;101218.69;5078640;28;20049;-62
2022/05/31 04:21:08;;;;;;;9.70;3.17;;;;;;;14.36;48.85;101216.00;5081054;28;20075;-62
2022/05/31 04:26:23;;;;;;;9.05;3.03;;;;;;;14.36;48.81;101216.00;5079892;28;20059;-62
2022/05/31 04:28:51;;;;;;;5.00;3.00;;;;;;;14.33;48.57;101218.13;5074266;28;20055;-62
2022/05/31 04:31:21;;;;;;;5.13;2.40;;;;;;;14.25;48.79;101204.13;5082134;28;20528;-62
2022/05/31 04:33:49;;;;;;;6.35;3.30;;;;;;;14.32;48.47;101216.47;5080725;28;20052;-62
2022/05/31 04:36:21;;;;;;;6.07;3.72;;;;;;;14.30;48.46;101215.06;5082068;28;20067;-62
2022/05/31 04:38:51;;;;;;;5.82;2.85;;;;;;;14.32;48.56;101213.75;5082385;28;20041;-62
2022/05/31 04:41:21;;;;;;;7.07;2.90;;;;;;;14.29;48.63;101208.00;5075250;28;20074;-62
2022/05/31 04:43:51;;;;;;;7.57;3.15;;;;;;;14.25;48.82;101202.25;5075396;28;20119;-63
2022/05/31 04:46:22;;;;;;;5.32;3.08;;;;;;;14.31;49.06;101216.72;5071993;28;20052;-63
2022/05/31 04:48:51;;;;;;;6.40;2.88;;;;;;;14.31;48.65;101219.41;5077729;28;20056;-63
2022/05/31 04:51:18;;;;;;;8.88;3.08;;;;;;;14.30;48.90;101221.28;5079643;28;20048;-63
2022/05/31 04:53:46;;;;;;;7.38;3.30;;;;;;;14.30;48.70;101220.47;5079419;28;20071;-63
2022/05/31 04:56:19;;;;;;;6.68;3.05;;;;;;;14.26;48.97;101209.31;5081342;28;20059;-64
2022/05/31 04:58:48;;;;;;;5.82;3.22;;;;;;;14.29;49.17;101218.81;5081966;28;20108;-64
2022/05/31 05:01:16;;;;;;;8.65;4.05;;;;;;;14.29;49.33;101219.66;5077575;28;20136;-64
2022/05/31 05:03:45;;;;;;;6.97;3.35;;;;;;;14.28;49.38;101218.00;5081325;28;20051;-63
2022/05/31 05:06:15;;;;;;;7.03;3.45;;;;;;;14.28;49.09;101220.72;5080627;28;20128;-63
2022/05/31 05:08:43;;;;;;;5.38;2.60;;;;;;;14.27;49.35;101216.34;5084767;28;20337;-63
2022/05/31 05:11:17;;;;;;;7.30;3.20;;;;;;;14.27;49.42;101207.44;5076026;28;20036;-65
2022/05/31 05:13:45;;;;;;;5.45;3.20;;;;;;;14.26;49.67;101206.59;5075968;28;20135;-63
2022/05/31 05:16:14;;;;;;;4.70;3.10;;;;;;;14.24;50.02;101205.19;5082949;28;20119;-63
2022/05/31 05:18:43;;;;;;;5.15;3.20;;;;;;;14.24;50.07;101207.91;5077641;28;20075;-61
2022/05/31 05:21:14;;;;;;;9.73;3.97;;;;;;;14.22;50.49;101210.84;5083625;28;20083;-64
2022/05/31 05:23:42;;;;;;;10.27;3.55;;;;;;;14.23;49.92;101207.06;5081672;28;20047;-64
2022/05/31 05:26:10;;;;;;;5.80;3.67;;;;;;;14.22;50.11;101202.72;5090522;28;20135;-63
2022/05/31 05:31:27;;;;;;;6.78;3.58;;;;;;;14.22;50.13;101205.44;5079596;28;20166;-63
2022/05/31 05:33:56;;;;;;;6.95;3.70;;;;;;;14.22;50.40;101208.13;5085882;28;20040;-65
2022/05/31 05:36:24;;;;;;;9.15;4.05;;;;;;;14.22;50.29;101204.63;5084873;28;20056;-63
2022/05/31 05:38:53;;;;;;;7.10;4.07;;;;;;;14.19;50.37;101205.91;4720326;28;10000026;-62
2022/05/31 05:41:23;;;;;;;6.82;3.92;;;;;;;14.20;50.30;101202.16;5070748;28;20102;-62
2022/05/31 05:43:52;;;;;;;10.88;3.63;;;;;;;14.20;50.55;101207.56;5075274;28;20081;-62
2022/05/31 05:46:21;;;;;;;5.82;3.00;;;;;;;14.19;49.90;101200.50;5074454;28;20109;-63
2022/05/31 05:48:50;;;;;;;4.88;3.08;;;;;;;14.17;50.34;101205.31;5079220;28;20071;-61
2022/05/31 05:51:20;;;;;;;6.20;3.25;;;;;;;14.22;50.09;101207.31;5083070;28;20064;-62
2022/05/31 05:53:48;;;;;;;5.57;3.05;;;;;;;14.23;50.05;101208.97;5081731;28;20131;-62
2022/05/31 05:56:17;;;;;;;6.65;2.85;;;;;;;14.23;50.00;101208.97;5085051;28;20083;-62
2022/05/31 05:58:45;;;;;;;7.47;3.55;;;;;;;14.22;50.30;101212.72;5076566;28;20496;-61
2022/05/31 06:01:19;;;;;;;6.90;3.33;;;;;;;14.23;50.39;101206.25;5076247;28;20091;-62
2022/05/31 06:03:53;;;;;;;7.20;3.78;;;;;;;14.22;50.20;101210.84;5067320;28;20136;-62
2022/05/31 06:06:23;;;;;;;6.03;3.65;;;;;;;14.23;49.92;101209.78;5078925;28;20374;-60
2022/05/31 06:08:56;;;;;;;9.05;3.65;;;;;;;14.24;50.28;101207.91;5080657;28;20151;-62
2022/05/31 06:11:28;;;;;;;6.15;3.58;;;;;;;14.22;50.09;101210.84;5071917;28;20083;-62
2022/05/31 06:14:00;;;;;;;6.03;4.03;;;;;;;14.21;50.24;101206.50;5082108;28;20085;-62
2022/05/31 06:16:34;;;;;;;6.03;3.75;;;;;;;14.23;50.30;101211.66;5084310;28;20052;-63
2022/05/31 06:19:07;;;;;;;5.15;3.00;;;;;;;14.22;50.03;101205.44;5086276;28;20082;-62
2022/05/31 06:21:35;;;;;;;5.78;3.30;;;;;;;14.19;50.04;101207.78;5084398;28;20072;-62
2022/05/31 06:24:04;;;;;;;4.90;3.28;;;;;;;14.22;50.67;101213.53;5084661;28;20049;-62
2022/05/31 06:26:32;;;;;;;6.82;4.05;;;;;;;14.23;50.53;101226.00;5086255;28;20492;-62
2022/05/31 06:29:00;;;;;;;9.35;3.83;;;;;;;14.24;50.35;101227.66;5086361;28;20075;-62
2022/05/31 06:31:29;;;;;;;9.18;3.65;;;;;;;14.26;49.97;101230.94;5079600;28;20109;-62
2022/05/31 06:33:57;;;;;;;5.72;3.45;;;;;;;14.25;50.04;101214.94;5081774;28;20147;-61
2022/05/31 06:36:25;;;;;;;6.65;3.45;;;;;;;14.29;50.36;101219.66;4725843;28;10000427;-62
2022/05/31 06:38:53;;;;;;;7.05;3.97;;;;;;;14.30;50.56;101223.19;5075782;28;20336;-61
2022/05/31 06:41:21;;;;;;;5.43;3.80;;;;;;;14.32;50.21;101221.06;5072148;28;20452;-62
2022/05/31 06:43:49;;;;;;;6.15;3.40;;;;;;;14.38;50.28;101230.09;5076341;28;20052;-62
2022/05/31 06:46:17;;;;;;;7.35;4.00;;;;;;;14.40;50.40;101220.69;5081824;28;20388;-62
2022/05/31 06:48:46;;;;;;;9.02;4.40;;;;;;;14.41;50.47;101225.03;5071589;28;20051;-62
2022/05/31 06:56:47;;;;;;;7.28;3.55;;;;;;;14.45;50.66;101222.72;5072470;28;20044;-63
2022/05/31 06:56:50;;;;;;;5.15;3.15;;;;;;;14.47;50.28;101217.88;5076728;28;20052;-62
2022/05/31 06:59:18;;;;;;;6.72;4.43;;;;;;;14.48;50.66;101214.13;5075152;28;20485;-63
2022/05/31 07:01:47;;;;;;;6.22;4.25;;;;;;;14.50;50.79;101214.69;5075906;28;20055;-63
2022/05/31 07:04:17;;;;;;;4.82;3.25;;;;;;;14.52;50.41;101218.81;5078873;28;20417;-63
2022/05/31 07:06:44;;;;;;;6.82;3.15;;;;;;;14.55;50.77;101217.50;5068767;28;20056;-63
2022/05/31 07:09:12;;;;;;;9.98;3.63;;;;;;;14.55;50.30;101212.09;5075832;28;20680;-63
2022/05/31 07:11:40;;;;;;;4.97;3.45;;;;;;;14.57;50.18;101218.91;5077832;28;20045;-63
2022/05/31 07:14:08;;;;;;;6.30;2.95;;;;;;;14.62;50.54;101213.63;5076275;28;20049;-63
2022/05/31 07:16:36;;;;;;;4.85;3.15;;;;;;;14.61;50.87;101208.44;5071366;28;20067;-62
2022/05/31 07:19:04;;;;;;;7.53;3.28;;;;;;;14.67;51.18;101217.50;5079941;28;20052;-63
2022/05/31 07:21:33;;;;;;;6.10;3.05;;;;;;;14.78;52.33;101214.75;5079197;28;20076;-63
2022/05/31 07:24:01;;;;;;;4.80;2.83;;;;;;;14.79;51.01;101218.28;5085227;28;20103;-64
2022/05/31 07:26:28;;;;;;;8.10;3.30;;;;;;;14.80;50.80;101212.63;5067369;28;20068;-62
2022/05/31 07:29:03;;;;;;;5.65;2.95;;;;;;;14.81;50.64;101210.72;5072519;28;20052;-63
2022/05/31 07:31:31;;;;;;;5.47;3.10;;;;;;;14.81;51.96;101205.31;5082302;28;20052;-63
2022/05/31 07:33:59;;;;;;;7.10;3.42;;;;;;;14.84;51.58;101213.78;5073803;28;20079;-63
2022/05/31 07:36:27;;;;;;;4.85;3.20;;;;;;;14.86;51.55;101214.38;5073293;28;20068;-63
2022/05/31 07:38:56;;;;;;;5.10;2.80;;;;;;;14.87;51.22;101216.00;5082161;28;20056;-62
2022/05/31 07:41:24;;;;;;;6.20;2.95;;;;;;;14.86;50.82;101214.38;5069931;28;20110;-63
2022/05/31 07:43:53;;;;;;;7.15;3.00;;;;;;;14.86;50.97;101202.72;5079161;28;20123;-63
2022/05/31 07:46:21;;;;;;;5.95;3.05;;;;;;;14.85;50.72;101204.59;5076343;28;20077;-63
2022/05/31 07:48:49;;;;;;;5.13;2.80;;;;;;;14.84;51.07;101205.66;5083682;28;20450;-63
2022/05/31 07:51:17;;;;;;;6.00;3.03;;;;;;;14.85;50.93;101201.06;5071928;28;20056;-63
2022/05/31 07:53:44;;;;;;;6.82;3.13;;;;;;;14.85;51.02;101198.38;5080745;28;20540;-62
2022/05/31 07:56:14;;;;;;;8.88;2.95;;;;;;;14.85;51.28;101199.19;5078927;28;20059;-63
2022/05/31 07:58:43;;;;;;;5.45;3.00;;;;;;;14.85;51.47;101196.47;5074653;28;20179;-62
2022/05/31 08:01:13;;;;;;;6.38;2.88;;;;;;;14.87;51.18;101198.94;5073311;28;20151;-62
2022/05/31 08:03:41;;;;;;;7.18;3.78;;;;;;;14.86;51.36;101191.88;5075985;28;20070;-62
2022/05/31 08:06:11;;;;;;;5.50;3.17;;;;;;;14.90;51.67;101190.34;5078046;28;20064;-62
2022/05/31 08:08:39;;;;;;;4.93;2.80;;;;;;;14.92;51.05;101189.03;5067310;28;20045;-62
2022/05/31 08:11:10;;;;;;;6.15;3.00;;;;;;;14.89;51.26;101183.28;5075408;28;20060;-62
2022/05/31 08:13:40;;;;;;;7.57;2.90;;;;;;;14.93;51.54;101179.84;5078575;28;20045;-62
2022/05/31 08:16:09;;;;;;;6.75;3.33;;;;;;;14.95;51.71;101180.44;5081682;28;20076;-63
2022/05/31 08:18:38;;;;;;;6.80;3.17;;;;;;;15.02;51.64;101184.88;5082338;28;20038;-62
2022/05/31 08:21:09;;;;;;;6.78;3.10;;;;;;;15.02;51.52;101180.28;5079621;28;20045;-62
2022/05/31 08:23:38;;;;;;;6.85;3.28;;;;;;;15.05;51.75;101181.69;5073689;28;20087;-62
2022/05/31 08:26:06;;;;;;;5.80;3.58;;;;;;;15.06;51.93;101184.16;5076580;28;20060;-62
2022/05/31 08:28:35;;;;;;;4.90;3.30;;;;;;;15.06;52.17;101180.63;5070489;28;20044;-62
2022/05/31 08:31:06;;;;;;;6.68;3.28;;;;;;;15.10;51.85;101187.19;5081829;28;20059;-62
2022/05/31 08:33:34;;;;;;;5.43;3.22;;;;;;;15.14;52.67;101183.75;5073636;28;20075;-62
2022/05/31 08:36:02;;;;;;;14.07;3.60;;;;;;;15.18;52.73;101184.91;5075061;28;20049;-62
2022/05/31 08:38:31;;;;;;;13.07;3.55;;;;;;;15.22;52.88;101186.06;5075629;28;20556;-63
2022/05/31 08:41:08;;;;;;;13.55;3.50;;;;;;;15.22;52.91;101177.13;5077866;28;20049;-62
2022/05/31 08:43:51;;;;;;;6.70;3.28;;;;;;;15.27;52.68;101180.72;5077728;28;20166;-62
2022/05/31 08:46:33;;;;;;;7.15;3.45;;;;;;;15.30;52.51;101174.00;5071326;28;20069;-62
2022/05/31 08:49:07;;;;;;;5.47;3.33;;;;;;;15.32;52.64;101169.16;5083227;28;20056;-62
2022/05/31 08:51:55;;;;;;;6.80;2.90;;;;;;;15.35;52.62;101176.81;5080315;28;20060;-63
2022/05/31 08:57:26;;;;;;;4.90;3.10;;;;;;;15.44;53.71;101169.09;5066722;28;20053;-62
2022/05/31 08:59:59;;;;;;;6.70;3.07;;;;;;;15.44;52.90;101172.63;5081821;28;20053;-62
2022/05/31 09:02:33;;;;;;;3.65;2.40;;;;;;;15.47;53.06;101168.59;5083817;28;20691;-62
2022/05/31 09:05:24;;;;;;;6.88;2.90;;;;;;;15.50;53.39;101158.09;5066896;28;20077;-63
2022/05/31 09:07:58;;;;;;;4.15;2.90;;;;;;;15.55;53.51;101162.78;5078618;28;20504;-62
2022/05/31 09:10:32;;;;;;;9.57;2.65;;;;;;;15.58;53.46;101160.41;5081037;28;20052;-64
2022/05/31 09:13:06;;;;;;;4.22;2.42;;;;;;;15.61;52.94;101159.91;5077865;28;20091;-63
2022/05/31 09:15:38;;;;;;;8.93;3.10;;;;;;;15.64;53.27;101158.56;5077012;28;20068;-61
2022/05/31 09:18:14;;;;;;;3.45;2.00;;;;;;;15.67;53.32;101158.09;5074869;28;20047;-64
2022/05/31 09:20:46;;;;;;;8.57;2.40;;;;;;;15.67;53.45;101147.25;5073700;28;20051;-63
2022/05/31 09:23:19;;;;;;;3.97;2.20;;;;;;;15.75;53.86;101164.97;5069504;28;20115;-63
2022/05/31 09:25:51;;;;;;;4.78;2.58;;;;;;;15.84;54.15;101166.19;5079902;28;20166;-63
2022/05/31 09:28:38;;;;;;;5.65;2.45;;;;;;;15.86;53.05;101164.06;5074310;28;20080;-64
2022/05/31 09:31:24;;;;;;;4.83;2.43;;;;;;;15.91;51.81;101158.72;5084916;28;20045;-64
2022/05/31 09:34:11;;;;;;;4.80;2.60;;;;;;;15.95;53.05;101160.66;5092441;28;20053;-64
2022/05/31 09:36:45;;;;;;;5.63;2.47;;;;;;;15.97;52.98;101163.13;5081232;28;20055;-64
2022/05/31 09:39:23;;;;;;;5.88;2.03;;;;;;;16.02;53.27;101159.66;5084593;28;20087;-64
2022/05/31 09:41:59;;;;;;;10.57;2.72;;;;;;;16.03;52.96;101158.59;5083674;28;20063;-64
2022/05/31 09:44:33;;;;;;;3.47;2.45;;;;;;;16.10;53.24;101159.25;5081989;28;20378;-64
2022/05/31 09:47:06;;;;;;;3.28;2.25;;;;;;;16.08;53.06;101148.66;5084236;28;20125;-64
2022/05/31 09:49:39;;;;;;;3.25;2.20;;;;;;;16.09;52.97;101157.59;5080318;28;20073;-63
2022/05/31 09:52:10;;;;;;;4.78;2.75;;;;;;;16.11;52.88;101148.16;5079524;28;20060;-64
2022/05/31 09:58:00;;;;;;;5.57;2.58;;;;;;;16.20;52.95;101152.06;5071765;28;20053;-63
2022/05/31 10:00:28;;;;;;;5.60;2.30;;;;;;;16.38;53.06;101150.09;5075531;28;20044;-63
2022/05/31 10:03:05;;;;;;;3.55;2.22;;;;;;;16.36;53.04;101149.53;5080422;28;20072;-61
2022/05/31 10:05:36;;;;;;;6.65;2.75;;;;;;;16.42;52.91;101149.34;5082888;28;20488;-63
2022/05/31 10:08:12;;;;;;;3.95;2.42;;;;;;;16.46;53.07;101146.94;5067599;28;20044;-63
2022/05/31 10:10:46;;;;;;;4.93;2.20;;;;;;;16.50;52.93;101148.06;5079444;28;20041;-64
2022/05/31 10:13:34;;;;;;;5.70;2.35;;;;;;;16.54;52.69;101143.78;5072656;28;20061;-64
2022/05/31 10:16:11;;;;;;;4.55;2.38;;;;;;;16.57;52.66;101141.38;5070826;28;20045;-63
2022/05/31 10:18:46;;;;;;;;;;;;;;;16.61;52.71;101138.97;5074761;28;20053;-63
2022/05/31 10:21:30;;;;;;;5.25;2.80;;;;;;;16.66;52.36;101136.34;5078158;28;19924;-63
2022/05/31 10:24:05;;;;;;;5.55;2.55;;;;;;;16.69;52.21;101135.84;5078005;28;20059;-63
2022/05/31 10:26:37;;;;;;;4.15;2.30;;;;;;;16.70;52.60;101142.91;5082360;28;20049;-64
2022/05/31 10:29:16;;;;;;;5.07;2.60;;;;;;;16.70;52.53;101140.19;5074668;28;20080;-64
2022/05/31 10:31:46;;;;;;;4.32;2.40;;;;;;;16.73;52.62;101139.69;5076870;28;20048;-63
2022/05/31 10:34:34;;;;;;;4.45;2.55;;;;;;;16.75;52.57;101139.44;5079907;28;20051;-64
2022/05/31 10:37:05;;;;;;;3.72;2.20;;;;;;;16.77;52.53;101132.69;5073501;28;20064;-63
2022/05/31 10:39:36;;;;;;;4.95;2.72;;;;;;;16.83;52.52;101136.25;5076454;28;20052;-63
2022/05/31 10:42:13;;;;;;;7.35;2.90;;;;;;;16.84;52.64;101135.19;5079499;28;20045;-63
2022/05/31 10:44:45;;;;;;;13.00;4.05;;;;;;;16.88;52.60;101139.03;5074667;28;20053;-63
2022/05/31 10:47:15;;;;;;;7.45;3.45;;;;;;;16.89;52.64;101137.94;5080091;28;20079;-64
2022/05/31 10:49:45;;;;;;;11.40;4.05;;;;;;;16.90;52.70;101143.13;5074059;28;20060;-64
2022/05/31 10:52:22;;;;;;;6.38;3.13;;;;;;;16.82;52.77;101135.44;5069002;28;20139;-64
2022/05/31 10:55:08;;;;;;;5.00;2.72;;;;;;;16.94;53.00;101142.59;5083467;28;20114;-64
2022/05/31 10:57:51;;;;;;;5.93;2.80;;;;;;;16.97;53.05;101155.66;5080845;28;20074;-63
2022/05/31 11:00:22;;;;;;;4.78;2.78;;;;;;;16.97;53.21;101153.78;5068161;28;20075;-63
2022/05/31 11:03:10;;;;;;;3.65;2.20;;;;;;;16.99;53.16;101156.22;5074559;28;20083;-62
2022/05/31 11:05:52;;;;;;;5.03;2.90;;;;;;;17.00;53.41;101161.41;5079169;28;20108;-64
2022/05/31 11:11:35;;;;;;;4.53;2.85;;;;;;;17.00;52.86;101164.13;5073653;28;20048;-63
2022/05/31 11:14:19;;;;;;;6.10;2.83;;;;;;;17.02;53.08;101166.59;5067289;28;20048;-63
2022/05/31 11:17:00;;;;;;;3.63;2.13;;;;;;;17.01;54.02;101165.75;5082818;28;20087;-64
2022/05/31 11:19:39;;;;;;;4.47;2.60;;;;;;;17.14;53.88;101164.53;5072266;28;20052;-64
2022/05/31 11:22:29;;;;;;;5.75;2.08;;;;;;;17.12;53.04;101172.13;5078474;28;20074;-64
2022/05/31 11:25:23;;;;;;;4.22;2.53;;;;;;;17.06;52.08;101178.56;5072371;28;20127;-64
2022/05/31 11:28:03;;;;;;;4.78;2.25;;;;;;;17.01;52.04;101175.81;5079812;28;20402;-64
2022/05/31 11:30:39;;;;;;;3.88;2.00;;;;;;;16.96;51.77;101182.00;5071514;28;20045;-64
2022/05/31 11:33:33;;;;;;;5.28;2.00;;;;;;;16.91;51.73;101168.38;5082154;28;20056;-64
2022/05/31 11:36:12;;;;;;;3.65;2.30;;;;;;;16.86;50.48;101157.47;5064418;28;20092;-64
2022/05/31 11:38:49;;;;;;;3.92;2.13;;;;;;;16.84;51.40;101159.63;5074141;28;20056;-63
2022/05/31 11:41:27;;;;;;;3.80;2.10;;;;;;;16.83;51.72;101156.09;5080547;28;20489;-64
2022/05/31 11:44:23;;;;;;;3.10;2.05;;;;;;;16.84;51.83;101154.19;5084919;28;20056;-64
2022/05/31 11:46:59;;;;;;;4.32;2.05;;;;;;;16.85;52.30;101159.34;5075049;28;20060;-65
2022/05/31 11:49:36;;;;;;;3.80;2.35;;;;;;;16.87;52.38;101156.38;5078994;28;20175;-64
2022/05/31 11:52:18;;;;;;;4.25;2.10;;;;;;;16.87;52.50;101151.78;5071739;28;20379;-64
2022/05/31 11:55:28;;;;;;;6.75;2.00;;;;;;;16.80;52.70;101148.44;5074340;28;20044;-64
2022/05/31 11:58:35;;;;;;;3.92;2.47;;;;;;;16.88;52.87;101160.75;4996401;28;20050;-63
2022/05/31 12:01:11;;;;;;;5.75;1.85;;;;;;;16.90;53.15;101169.44;4997253;28;20050;-63
2022/05/31 12:03:46;;;;;;;4.10;2.10;;;;;;;16.98;53.96;101160.84;4996282;28;20058;-64
2022/05/31 12:06:21;;;;;;;4.55;2.15;;;;;;;16.97;53.28;101163.81;5002200;28;20092;-64